createdAt,value
2018-07-29T00:00:19.887Z,2.37
2018-07-29T00:01:24.072Z,2.60
2018-07-29T00:02:27.479Z,2.30
2018-07-29T00:03:30.879Z,2.10
2018-07-29T00:04:34.299Z,2.30
2018-07-29T00:05:39.157Z,2.20
2018-07-29T00:06:42.567Z,2.52
2018-07-29T00:07:45.951Z,2.40
2018-07-29T00:08:49.443Z,2.40
2018-07-29T00:09:53.015Z,2.52
2018-07-29T00:10:57.463Z,2.20
2018-07-29T00:12:00.914Z,2.30
2018-07-29T00:13:04.295Z,2.22
2018-07-29T00:14:08.419Z,2.55
2018-07-29T00:15:12.850Z,2.02
2018-07-29T00:16:16.712Z,2.25
2018-07-29T00:17:20.119Z,2.33
2018-07-29T00:18:23.515Z,2.12
2018-07-29T00:19:27.088Z,2.42
2018-07-29T00:20:31.480Z,2.05
2018-07-29T00:21:34.895Z,2.25
2018-07-29T00:22:38.299Z,2.10
2018-07-29T00:23:41.398Z,2.60
2018-07-29T00:24:44.542Z,2.27
2018-07-29T00:25:48.866Z,2.47
2018-07-29T00:26:52.303Z,2.33
2018-07-29T00:27:55.683Z,2.12
2018-07-29T00:28:59.076Z,2.08
2018-07-29T00:30:02.509Z,2.50
2018-07-29T00:31:07.089Z,2.17
2018-07-29T00:32:10.515Z,2.22
2018-07-29T00:33:13.595Z,2.22
2018-07-29T00:34:16.998Z,2.87
2018-07-29T00:35:22.105Z,2.72
2018-07-29T00:36:26.748Z,2.02
2018-07-29T00:37:30.139Z,2.25
2018-07-29T00:38:33.535Z,1.90
2018-07-29T00:39:36.943Z,2.45
2018-07-29T00:40:41.480Z,2.42
2018-07-29T00:41:44.574Z,2.22
2018-07-29T00:42:47.955Z,2.67
2018-07-29T00:43:51.046Z,2.35
2018-07-29T00:44:54.127Z,2.47
2018-07-29T00:45:58.853Z,2.33
2018-07-29T00:47:02.247Z,2.50
2018-07-29T00:48:05.780Z,2.22
2018-07-29T00:49:09.183Z,2.02
2018-07-29T00:50:13.477Z,2.17
2018-07-29T00:51:17.334Z,2.50
2018-07-29T00:52:20.764Z,2.15
2018-07-29T00:53:24.147Z,2.00
2018-07-29T00:54:27.547Z,2.05
2018-07-29T00:55:32.557Z,2.20
2018-07-29T00:56:35.951Z,2.20
2018-07-29T00:57:39.330Z,2.60
2018-07-29T00:58:42.703Z,2.20
2018-07-29T00:59:46.123Z,2.10
2018-07-29T01:00:49.996Z,2.47
2018-07-29T01:01:53.394Z,2.02
2018-07-29T01:02:56.767Z,2.00
2018-07-29T01:04:00.147Z,2.05
2018-07-29T01:05:03.806Z,2.10
2018-07-29T01:06:08.419Z,2.55
2018-07-29T01:07:11.835Z,2.05
2018-07-29T01:08:15.224Z,2.00
2018-07-29T01:09:18.604Z,2.17
2018-07-29T01:10:24.304Z,2.20
2018-07-29T01:11:29.071Z,1.92
2018-07-29T01:12:32.451Z,2.00
2018-07-29T01:13:35.839Z,2.67
2018-07-29T01:14:39.223Z,1.80
2018-07-29T01:15:45.082Z,2.10
2018-07-29T01:16:48.186Z,2.30
2018-07-29T01:17:51.579Z,2.75
2018-07-29T01:18:54.658Z,2.75
2018-07-29T01:19:58.120Z,2.45
2018-07-29T01:21:02.558Z,2.40
2018-07-29T01:22:05.979Z,2.37
2018-07-29T01:23:09.356Z,2.30
2018-07-29T01:24:12.739Z,2.15
2018-07-29T01:25:17.354Z,2.47
2018-07-29T01:26:21.944Z,1.97
2018-07-29T01:27:25.331Z,2.50
2018-07-29T01:28:28.732Z,2.40
2018-07-29T01:29:32.207Z,1.98
2018-07-29T01:30:36.778Z,2.20
2018-07-29T01:31:40.364Z,2.30
2018-07-29T01:32:43.747Z,2.30
2018-07-29T01:33:47.337Z,2.17
2018-07-29T01:34:50.723Z,1.87
2018-07-29T01:35:55.420Z,2.45
2018-07-29T01:36:58.871Z,2.40
2018-07-29T01:38:02.254Z,2.17
2018-07-29T01:39:06.146Z,2.42
2018-07-29T01:40:10.035Z,2.00
2018-07-29T01:41:15.272Z,2.25
2018-07-29T01:42:18.685Z,2.10
2018-07-29T01:43:22.078Z,2.70
2018-07-29T01:44:25.456Z,2.55
2018-07-29T01:45:29.874Z,2.08
2018-07-29T01:46:33.319Z,2.77
2018-07-29T01:47:36.711Z,1.80
2018-07-29T01:48:40.095Z,2.12
2018-07-29T01:49:43.475Z,2.47
2018-07-29T01:50:47.918Z,2.22
2018-07-29T01:51:51.347Z,2.62
2018-07-29T01:52:54.731Z,2.40
2018-07-29T01:53:58.107Z,2.13
2018-07-29T01:55:01.487Z,1.93
2018-07-29T01:56:05.906Z,2.22
2018-07-29T01:57:09.332Z,2.42
2018-07-29T01:58:12.708Z,1.92
2018-07-29T01:59:16.095Z,2.08
2018-07-29T02:00:20.508Z,2.70
2018-07-29T02:01:25.001Z,1.85
2018-07-29T02:02:28.407Z,2.52
2018-07-29T02:03:31.482Z,2.70
2018-07-29T02:04:34.558Z,1.85
2018-07-29T02:05:38.836Z,2.17
2018-07-29T02:06:42.267Z,2.37
2018-07-29T02:07:45.659Z,2.15
2018-07-29T02:08:49.036Z,2.02
2018-07-29T02:09:52.420Z,2.77
2018-07-29T02:10:57.032Z,2.62
2018-07-29T02:12:00.431Z,2.05
2018-07-29T02:13:03.819Z,2.58
2018-07-29T02:14:07.199Z,2.35
2018-07-29T02:15:11.126Z,2.70
2018-07-29T02:16:16.457Z,2.50
2018-07-29T02:17:19.876Z,2.12
2018-07-29T02:18:23.287Z,2.30
2018-07-29T02:19:26.362Z,2.25
2018-07-29T02:20:33.739Z,2.27
2018-07-29T02:21:36.827Z,2.65
2018-07-29T02:22:39.914Z,2.27
2018-07-29T02:23:43.310Z,2.27
2018-07-29T02:24:46.692Z,1.98
2018-07-29T02:25:51.024Z,2.15
2018-07-29T02:26:54.415Z,2.85
2018-07-29T02:27:57.791Z,2.15
2018-07-29T02:29:01.231Z,2.85
2018-07-29T02:30:06.527Z,2.45
2018-07-29T02:31:10.991Z,2.50
2018-07-29T02:32:14.384Z,2.25
2018-07-29T02:33:17.762Z,2.40
2018-07-29T02:34:21.155Z,2.40
2018-07-29T02:35:25.661Z,2.55
2018-07-29T02:36:29.911Z,2.20
2018-07-29T02:37:33.407Z,2.17
2018-07-29T02:38:36.787Z,2.20
2018-07-29T02:39:40.187Z,2.00
2018-07-29T02:40:45.602Z,2.27
2018-07-29T02:41:48.947Z,2.40
2018-07-29T02:42:52.328Z,2.70
2018-07-29T02:43:55.709Z,2.58
2018-07-29T02:44:59.112Z,2.45
2018-07-29T02:46:03.647Z,2.30
2018-07-29T02:47:07.067Z,2.35
2018-07-29T02:48:10.451Z,2.62
2018-07-29T02:49:13.848Z,2.37
2018-07-29T02:50:18.423Z,2.60
2018-07-29T02:51:22.612Z,2.67
2018-07-29T02:52:26.016Z,2.67
2018-07-29T02:53:29.392Z,2.70
2018-07-29T02:54:32.771Z,1.92
2018-07-29T02:55:37.199Z,2.25
2018-07-29T02:56:40.603Z,2.50
2018-07-29T02:57:44.015Z,2.17
2018-07-29T02:58:47.391Z,2.80
2018-07-29T02:59:50.860Z,2.80
2018-07-29T03:00:55.395Z,2.42
2018-07-29T03:01:58.807Z,2.85
2018-07-29T03:03:02.187Z,2.55
2018-07-29T03:04:06.037Z,2.30
2018-07-29T03:05:10.589Z,2.65
2018-07-29T03:06:15.916Z,2.52
2018-07-29T03:07:19.320Z,2.58
2018-07-29T03:08:22.710Z,2.55
2018-07-29T03:09:26.088Z,3.02
2018-07-29T03:10:31.449Z,2.47
2018-07-29T03:11:34.883Z,3.25
2018-07-29T03:12:38.270Z,2.80
2018-07-29T03:13:41.651Z,2.45
2018-07-29T03:14:45.036Z,3.20
2018-07-29T03:15:49.414Z,2.67
2018-07-29T03:16:52.847Z,2.80
2018-07-29T03:17:56.283Z,2.77
2018-07-29T03:18:59.608Z,3.15
2018-07-29T03:20:03.258Z,2.42
2018-07-29T03:21:07.857Z,2.87
2018-07-29T03:22:11.275Z,2.92
2018-07-29T03:23:14.655Z,2.85
2018-07-29T03:24:18.031Z,2.80
2018-07-29T03:25:22.892Z,2.50
2018-07-29T03:26:27.507Z,2.75
2018-07-29T03:27:30.931Z,2.98
2018-07-29T03:28:34.319Z,2.67
2018-07-29T03:29:37.688Z,2.62
2018-07-29T03:30:42.273Z,2.35
2018-07-29T03:31:45.655Z,2.47
2018-07-29T03:32:49.047Z,2.83
2018-07-29T03:33:52.423Z,2.70
2018-07-29T03:34:55.805Z,3.12
2018-07-29T03:36:00.229Z,3.05
2018-07-29T03:37:03.343Z,2.42
2018-07-29T03:38:06.739Z,2.92
2018-07-29T03:39:11.495Z,3.00
2018-07-29T03:40:16.460Z,2.85
2018-07-29T03:41:20.961Z,3.05
2018-07-29T03:42:24.363Z,2.67
2018-07-29T03:43:27.454Z,2.45
2018-07-29T03:44:30.835Z,2.85
2018-07-29T03:45:35.142Z,2.60
2018-07-29T03:46:38.979Z,3.00
2018-07-29T03:47:42.355Z,2.67
2018-07-29T03:48:45.743Z,2.95
2018-07-29T03:49:49.123Z,2.92
2018-07-29T03:50:53.879Z,3.25
2018-07-29T03:51:57.291Z,3.25
2018-07-29T03:53:00.675Z,3.00
2018-07-29T03:54:04.068Z,3.25
2018-07-29T03:55:08.652Z,3.42
2018-07-29T03:56:13.075Z,3.50
2018-07-29T03:57:16.488Z,4.65
2018-07-29T03:58:19.895Z,4.08
2018-07-29T03:59:23.307Z,4.30
2018-07-29T04:00:27.741Z,5.17
2018-07-29T04:01:31.115Z,4.83
2018-07-29T04:02:34.507Z,5.20
2018-07-29T04:03:37.883Z,5.53
2018-07-29T04:04:41.283Z,5.55
2018-07-29T04:05:45.743Z,5.40
2018-07-29T04:06:49.351Z,5.55
2018-07-29T04:07:52.738Z,5.47
2018-07-29T04:08:56.115Z,4.75
2018-07-29T04:09:59.511Z,5.40
2018-07-29T04:11:04.044Z,5.70
2018-07-29T04:12:07.193Z,5.55
2018-07-29T04:13:10.544Z,5.72
2018-07-29T04:14:13.923Z,5.10
2018-07-29T04:15:18.422Z,5.22
2018-07-29T04:16:22.831Z,4.75
2018-07-29T04:17:26.215Z,5.10
2018-07-29T04:18:29.631Z,5.17
2018-07-29T04:19:33.011Z,4.67
2018-07-29T04:20:36.931Z,4.83
2018-07-29T04:21:40.751Z,4.83
2018-07-29T04:22:44.126Z,5.00
2018-07-29T04:23:47.507Z,5.03
2018-07-29T04:24:50.980Z,4.90
2018-07-29T04:25:55.612Z,4.30
2018-07-29T04:26:59.008Z,5.10
2018-07-29T04:28:02.383Z,4.10
2018-07-29T04:29:05.811Z,4.50
2018-07-29T04:30:10.885Z,4.80
2018-07-29T04:31:16.186Z,4.47
2018-07-29T04:32:19.583Z,4.20
2018-07-29T04:33:22.959Z,4.28
2018-07-29T04:34:26.331Z,4.58
2018-07-29T04:35:30.270Z,4.28
2018-07-29T04:36:33.709Z,4.20
2018-07-29T04:37:37.099Z,4.42
2018-07-29T04:38:40.471Z,4.15
2018-07-29T04:39:44.043Z,4.55
2018-07-29T04:40:48.572Z,4.00
2018-07-29T04:41:51.681Z,4.37
2018-07-29T04:42:54.746Z,4.28
2018-07-29T04:43:57.819Z,4.50
2018-07-29T04:45:01.205Z,4.55
2018-07-29T04:46:06.248Z,4.17
2018-07-29T04:47:09.679Z,3.92
2018-07-29T04:48:13.056Z,4.62
2018-07-29T04:49:22.951Z,4.40
2018-07-29T04:50:27.327Z,4.28
2018-07-29T04:51:30.727Z,4.10
2018-07-29T04:52:34.123Z,4.53
2018-07-29T04:53:37.495Z,3.98
2018-07-29T04:54:40.883Z,4.28
2018-07-29T04:55:46.371Z,4.50
2018-07-29T04:56:49.771Z,3.98
2018-07-29T04:57:53.170Z,4.33
2018-07-29T04:58:56.553Z,3.87
2018-07-29T04:59:59.951Z,3.67
2018-07-29T05:01:04.349Z,3.70
2018-07-29T05:02:07.823Z,3.60
2018-07-29T05:03:11.248Z,4.00
2018-07-29T05:04:14.624Z,3.52
2018-07-29T05:05:19.058Z,3.67
2018-07-29T05:06:22.622Z,3.70
2018-07-29T05:07:26.014Z,3.42
2018-07-29T05:08:29.411Z,3.45
2018-07-29T05:09:32.787Z,3.30
2018-07-29T05:10:37.081Z,3.20
2018-07-29T05:11:40.479Z,3.58
2018-07-29T05:12:43.851Z,3.47
2018-07-29T05:13:47.251Z,2.95
2018-07-29T05:14:50.623Z,3.25
2018-07-29T05:15:54.969Z,3.30
2018-07-29T05:16:58.383Z,3.00
2018-07-29T05:18:01.778Z,3.20
2018-07-29T05:19:05.375Z,3.92
2018-07-29T05:20:09.936Z,3.10
2018-07-29T05:21:14.460Z,3.47
2018-07-29T05:22:17.872Z,3.15
2018-07-29T05:23:21.253Z,2.70
2018-07-29T05:24:24.647Z,2.98
2018-07-29T05:25:29.164Z,2.77
2018-07-29T05:26:32.563Z,3.25
2018-07-29T05:27:35.943Z,3.02
2018-07-29T05:28:39.317Z,3.22
2018-07-29T05:29:42.747Z,2.92
2018-07-29T05:30:47.016Z,3.00
2018-07-29T05:31:50.438Z,2.60
2018-07-29T05:32:53.815Z,2.75
2018-07-29T05:33:57.200Z,2.83
2018-07-29T05:35:00.600Z,2.77
2018-07-29T05:36:05.118Z,2.47
2018-07-29T05:37:08.551Z,2.70
2018-07-29T05:38:11.931Z,2.62
2018-07-29T05:39:15.311Z,2.40
2018-07-29T05:40:21.242Z,2.83
2018-07-29T05:41:25.325Z,3.02
2018-07-29T05:42:28.730Z,2.90
2018-07-29T05:43:31.806Z,3.00
2018-07-29T05:44:34.881Z,2.40
2018-07-29T05:45:39.629Z,3.05
2018-07-29T05:46:43.020Z,2.87
2018-07-29T05:47:46.395Z,2.95
2018-07-29T05:48:49.767Z,2.72
2018-07-29T05:49:53.146Z,2.60
2018-07-29T05:50:57.069Z,2.55
2018-07-29T05:52:00.479Z,3.02
2018-07-29T05:53:03.884Z,2.50
2018-07-29T05:54:07.563Z,2.83
2018-07-29T05:55:12.429Z,2.62
2018-07-29T05:56:16.979Z,2.87
2018-07-29T05:57:20.399Z,2.87
2018-07-29T05:58:23.783Z,2.77
2018-07-29T05:59:27.159Z,2.92
2018-07-29T06:00:32.158Z,2.60
2018-07-29T06:01:35.583Z,3.08
2018-07-29T06:02:38.965Z,3.02
2018-07-29T06:03:42.343Z,2.45
2018-07-29T06:04:45.719Z,2.72
2018-07-29T06:05:50.091Z,2.35
2018-07-29T06:06:53.497Z,2.75
2018-07-29T06:07:56.871Z,2.60
2018-07-29T06:09:00.315Z,2.50
2018-07-29T06:10:04.797Z,2.92
2018-07-29T06:11:09.284Z,2.77
2018-07-29T06:12:12.763Z,2.77
2018-07-29T06:13:16.291Z,2.60
2018-07-29T06:14:19.667Z,2.60
2018-07-29T06:15:24.028Z,2.27
2018-07-29T06:16:28.467Z,2.98
2018-07-29T06:17:31.921Z,3.05
2018-07-29T06:18:35.259Z,2.60
2018-07-29T06:19:38.859Z,2.80
2018-07-29T06:20:43.242Z,2.40
2018-07-29T06:21:46.659Z,2.40
2018-07-29T06:22:50.056Z,2.90
2018-07-29T06:23:53.439Z,2.90
2018-07-29T06:24:56.822Z,3.27
2018-07-29T06:26:01.948Z,2.70
2018-07-29T06:27:05.359Z,2.87
2018-07-29T06:28:08.748Z,2.37
2018-07-29T06:29:11.830Z,2.60
2018-07-29T06:30:16.616Z,2.52
2018-07-29T06:31:20.445Z,2.85
2018-07-29T06:32:23.838Z,2.40
2018-07-29T06:33:27.231Z,2.30
2018-07-29T06:34:30.306Z,2.00
2018-07-29T06:35:34.001Z,2.52
2018-07-29T06:36:37.409Z,2.47
2018-07-29T06:37:40.841Z,2.47
2018-07-29T06:38:44.243Z,2.62
2018-07-29T06:39:47.619Z,2.33
2018-07-29T06:40:52.545Z,2.55
2018-07-29T06:41:55.636Z,2.90
2018-07-29T06:42:58.717Z,2.52
2018-07-29T06:44:01.826Z,2.23
2018-07-29T06:45:06.285Z,2.15
2018-07-29T06:46:11.614Z,2.65
2018-07-29T06:47:14.998Z,2.70
2018-07-29T06:48:18.382Z,2.52
2018-07-29T06:49:21.771Z,2.40
2018-07-29T06:50:26.194Z,3.00
2018-07-29T06:51:30.355Z,2.10
2018-07-29T06:52:33.732Z,2.70
2018-07-29T06:53:37.147Z,2.42
2018-07-29T06:54:40.628Z,2.50
2018-07-29T06:55:45.052Z,2.30
2018-07-29T06:56:48.171Z,2.55
2018-07-29T06:57:51.547Z,2.40
2018-07-29T06:58:54.943Z,2.70
2018-07-29T06:59:58.323Z,2.55
2018-07-29T07:01:02.121Z,2.30
2018-07-29T07:02:06.230Z,2.22
2018-07-29T07:03:09.601Z,2.50
2018-07-29T07:04:13.031Z,2.20
2018-07-29T07:05:17.885Z,2.33
2018-07-29T07:06:22.263Z,2.77
2018-07-29T07:07:25.672Z,2.50
2018-07-29T07:08:29.043Z,2.40
2018-07-29T07:09:32.456Z,2.65
2018-07-29T07:10:36.842Z,2.40
2018-07-29T07:11:40.248Z,2.33
2018-07-29T07:12:43.627Z,2.33
2018-07-29T07:13:47.020Z,2.80
2018-07-29T07:14:50.417Z,2.33
2018-07-29T07:15:54.920Z,2.60
2018-07-29T07:16:58.356Z,2.30
2018-07-29T07:18:01.778Z,2.60
2018-07-29T07:19:05.163Z,2.35
2018-07-29T07:20:09.768Z,2.77
2018-07-29T07:21:14.391Z,2.23
2018-07-29T07:22:17.807Z,2.62
2018-07-29T07:23:20.886Z,2.50
2018-07-29T07:24:24.263Z,2.60
2018-07-29T07:25:29.500Z,2.03
2018-07-29T07:26:32.907Z,1.98
2018-07-29T07:27:36.279Z,2.10
2018-07-29T07:28:39.659Z,2.65
2018-07-29T07:29:43.028Z,2.13
2018-07-29T07:30:47.491Z,2.20
2018-07-29T07:31:50.881Z,2.20
2018-07-29T07:32:54.255Z,2.35
2018-07-29T07:33:57.631Z,2.58
2018-07-29T07:35:01.008Z,2.52
2018-07-29T07:36:05.654Z,2.58
2018-07-29T07:37:09.055Z,2.30
2018-07-29T07:38:12.451Z,2.30
2018-07-29T07:39:15.831Z,2.37
2018-07-29T07:40:20.263Z,2.67
2018-07-29T07:41:24.733Z,2.47
2018-07-29T07:42:28.131Z,2.40
2018-07-29T07:43:31.511Z,2.25
2018-07-29T07:44:34.879Z,2.17
2018-07-29T07:45:39.412Z,2.62
2018-07-29T07:46:42.823Z,2.30
2018-07-29T07:47:46.240Z,2.00
2018-07-29T07:48:49.636Z,1.67
2018-07-29T07:49:53.035Z,2.10
2018-07-29T07:50:57.620Z,2.22
2018-07-29T07:52:01.019Z,2.10
2018-07-29T07:53:04.420Z,2.50
2018-07-29T07:54:07.814Z,2.35
2018-07-29T07:55:12.152Z,2.15
2018-07-29T07:56:16.756Z,2.40
2018-07-29T07:57:20.145Z,2.42
2018-07-29T07:58:23.524Z,2.00
2018-07-29T07:59:26.915Z,2.10
2018-07-29T08:00:31.353Z,2.40
2018-07-29T08:01:34.943Z,1.97
2018-07-29T08:02:38.323Z,2.30
2018-07-29T08:03:41.703Z,2.30
2018-07-29T08:04:45.095Z,2.00
2018-07-29T08:05:50.021Z,2.07
2018-07-29T08:06:53.450Z,2.27
2018-07-29T08:07:56.850Z,2.13
2018-07-29T08:09:00.227Z,2.10
2018-07-29T08:10:04.380Z,2.30
2018-07-29T08:11:08.789Z,2.27
2018-07-29T08:12:12.207Z,2.42
2018-07-29T08:13:15.595Z,2.40
2018-07-29T08:14:18.972Z,2.20
2018-07-29T08:15:23.355Z,2.77
2018-07-29T08:16:27.885Z,1.90
2018-07-29T08:17:31.339Z,2.40
2018-07-29T08:18:34.715Z,1.90
2018-07-29T08:19:38.085Z,2.00
2018-07-29T08:20:44.057Z,2.27
2018-07-29T08:21:47.452Z,2.30
2018-07-29T08:22:50.850Z,2.20
2018-07-29T08:23:54.225Z,2.00
2018-07-29T08:24:57.587Z,2.07
2018-07-29T08:26:01.989Z,2.30
2018-07-29T08:27:05.477Z,2.00
2018-07-29T08:28:09.011Z,2.20
2018-07-29T08:29:12.387Z,2.43
2018-07-29T08:30:16.902Z,2.20
2018-07-29T08:31:21.220Z,2.10
2018-07-29T08:32:24.595Z,2.13
2018-07-29T08:33:28.187Z,2.33
2018-07-29T08:34:31.558Z,2.50
2018-07-29T08:35:36.094Z,2.00
2018-07-29T08:36:39.530Z,2.00
2018-07-29T08:37:42.939Z,2.10
2018-07-29T08:38:46.370Z,1.70
2018-07-29T08:39:49.711Z,2.03
2018-07-29T08:40:54.060Z,1.92
2018-07-29T08:41:57.445Z,1.90
2018-07-29T08:43:00.843Z,2.07
2018-07-29T08:44:03.919Z,1.70
2018-07-29T08:45:07.735Z,2.00
2018-07-29T08:46:12.359Z,1.90
2018-07-29T08:47:15.769Z,1.73
2018-07-29T08:48:19.163Z,2.20
2018-07-29T08:49:22.547Z,1.82
2018-07-29T08:50:26.878Z,2.33
2018-07-29T08:51:30.315Z,1.73
2018-07-29T08:52:33.687Z,1.87
2018-07-29T08:53:37.082Z,1.90
2018-07-29T08:54:40.471Z,1.90
2018-07-29T08:55:44.840Z,2.00
2018-07-29T08:56:48.239Z,1.80
2018-07-29T08:57:51.613Z,1.90
2018-07-29T08:58:54.991Z,1.50
2018-07-29T08:59:58.395Z,1.97
2018-07-29T09:01:02.242Z,1.90
2018-07-29T09:02:05.639Z,2.00
2018-07-29T09:03:09.271Z,1.60
2018-07-29T09:04:12.379Z,1.97
2018-07-29T09:05:16.732Z,1.80
2018-07-29T09:06:21.100Z,1.80
2018-07-29T09:07:24.491Z,1.80
2018-07-29T09:08:27.868Z,1.63
2018-07-29T09:09:31.265Z,1.93
2018-07-29T09:10:35.666Z,1.63
2018-07-29T09:11:39.151Z,1.70
2018-07-29T09:12:42.532Z,2.00
2018-07-29T09:13:45.919Z,1.63
2018-07-29T09:14:49.308Z,1.63
2018-07-29T09:15:53.728Z,1.90
2018-07-29T09:16:57.159Z,2.20
2018-07-29T09:18:00.535Z,1.77
2018-07-29T09:19:04.099Z,1.93
2018-07-29T09:20:08.537Z,1.80
2018-07-29T09:21:13.754Z,1.70
2018-07-29T09:22:17.160Z,1.60
2018-07-29T09:23:20.231Z,2.10
2018-07-29T09:24:23.607Z,1.60
2018-07-29T09:25:29.054Z,1.90
2018-07-29T09:26:32.131Z,2.03
2018-07-29T09:27:35.543Z,2.10
2018-07-29T09:28:38.916Z,1.70
2018-07-29T09:29:42.287Z,1.80
2018-07-29T09:30:47.001Z,2.10
2018-07-29T09:31:50.347Z,2.17
2018-07-29T09:32:53.718Z,1.57
2018-07-29T09:33:57.095Z,2.00
2018-07-29T09:35:00.464Z,2.00
2018-07-29T09:36:05.147Z,1.77
2018-07-29T09:37:08.548Z,1.90
2018-07-29T09:38:11.924Z,2.13
2018-07-29T09:39:15.487Z,2.10
2018-07-29T09:40:19.915Z,1.93
2018-07-29T09:41:24.047Z,1.70
2018-07-29T09:42:27.445Z,2.10
2018-07-29T09:43:30.819Z,2.00
2018-07-29T09:44:34.183Z,1.97
2018-07-29T09:45:39.029Z,2.10
2018-07-29T09:46:42.511Z,1.70
2018-07-29T09:47:45.880Z,1.80
2018-07-29T09:48:49.255Z,1.67
2018-07-29T09:49:52.619Z,1.90
2018-07-29T09:50:57.104Z,1.70
2018-07-29T09:52:00.523Z,1.67
2018-07-29T09:53:04.120Z,1.90
2018-07-29T09:54:07.492Z,2.20
2018-07-29T09:55:11.912Z,1.63
2018-07-29T09:56:16.272Z,2.30
2018-07-29T09:57:19.675Z,1.83
2018-07-29T09:58:23.051Z,1.90
2018-07-29T09:59:26.431Z,1.53
2018-07-29T10:00:35.680Z,1.87
2018-07-29T10:01:39.095Z,2.27
2018-07-29T10:02:42.483Z,1.73
2018-07-29T10:03:45.849Z,1.63
2018-07-29T10:04:49.217Z,1.73
2018-07-29T10:05:53.776Z,2.10
2018-07-29T10:06:57.163Z,1.80
2018-07-29T10:08:00.847Z,1.83
2018-07-29T10:09:06.227Z,2.20
2018-07-29T10:10:10.991Z,2.07
2018-07-29T10:11:15.409Z,2.07
2018-07-29T10:12:18.795Z,1.60
2018-07-29T10:13:22.183Z,1.67
2018-07-29T10:14:25.963Z,2.07
2018-07-29T10:15:31.151Z,1.73
2018-07-29T10:16:34.543Z,1.90
2018-07-29T10:17:37.936Z,1.90
2018-07-29T10:18:41.372Z,1.90
2018-07-29T10:19:44.735Z,1.90
2018-07-29T10:20:49.235Z,1.70
2018-07-29T10:21:52.703Z,1.67
2018-07-29T10:22:56.097Z,1.90
2018-07-29T10:23:59.471Z,2.00
2018-07-29T10:25:03.232Z,1.80
2018-07-29T10:26:08.414Z,1.90
2018-07-29T10:27:11.823Z,2.03
2018-07-29T10:28:15.228Z,2.13
2018-07-29T10:29:18.598Z,1.70
2018-07-29T10:30:23.021Z,1.47
2018-07-29T10:31:26.871Z,1.63
2018-07-29T10:32:30.279Z,1.80
2018-07-29T10:33:33.683Z,1.90
2018-07-29T10:34:37.051Z,2.20
2018-07-29T10:35:41.501Z,1.70
2018-07-29T10:36:44.932Z,1.50
2018-07-29T10:37:48.311Z,1.47
2018-07-29T10:38:51.692Z,1.90
2018-07-29T10:39:55.059Z,1.80
2018-07-29T10:40:59.542Z,2.00
2018-07-29T10:42:02.955Z,1.60
2018-07-29T10:43:06.027Z,1.70
2018-07-29T10:44:09.107Z,1.80
2018-07-29T10:45:12.707Z,1.90
2018-07-29T10:46:17.169Z,1.70
2018-07-29T10:47:20.622Z,2.03
2018-07-29T10:48:23.959Z,1.83
2018-07-29T10:49:27.347Z,2.07
2018-07-29T10:50:32.935Z,2.00
2018-07-29T10:51:36.336Z,2.00
2018-07-29T10:52:39.712Z,1.87
2018-07-29T10:53:43.103Z,1.77
2018-07-29T10:54:46.472Z,1.73
2018-07-29T10:55:50.851Z,1.97
2018-07-29T10:56:54.235Z,1.77
2018-07-29T10:57:57.615Z,1.83
2018-07-29T10:59:01.008Z,1.83
2018-07-29T11:00:05.034Z,2.10
2018-07-29T11:01:09.590Z,1.60
2018-07-29T11:02:12.691Z,1.90
2018-07-29T11:03:16.059Z,1.97
2018-07-29T11:04:19.451Z,1.90
2018-07-29T11:05:23.860Z,1.50
2018-07-29T11:06:27.593Z,2.17
2018-07-29T11:07:30.994Z,1.80
2018-07-29T11:08:34.363Z,1.87
2018-07-29T11:09:37.764Z,1.80
2018-07-29T11:10:42.326Z,1.73
2018-07-29T11:11:45.735Z,1.60
2018-07-29T11:12:49.102Z,1.80
2018-07-29T11:13:52.474Z,1.80
2018-07-29T11:14:55.858Z,1.80
2018-07-29T11:16:00.306Z,1.87
2018-07-29T11:17:03.715Z,1.80
2018-07-29T11:18:07.090Z,2.10
2018-07-29T11:19:10.147Z,2.60
2018-07-29T11:20:14.631Z,1.70
2018-07-29T11:21:19.134Z,2.10
2018-07-29T11:22:22.575Z,1.80
2018-07-29T11:23:25.642Z,1.83
2018-07-29T11:24:29.019Z,1.43
2018-07-29T11:25:33.663Z,1.70
2018-07-29T11:26:37.159Z,1.90
2018-07-29T11:27:40.531Z,1.77
2018-07-29T11:28:43.899Z,1.53
2018-07-29T11:29:47.273Z,1.53
2018-07-29T11:30:52.929Z,1.67
2018-07-29T11:31:56.332Z,1.70
2018-07-29T11:32:59.711Z,1.90
2018-07-29T11:34:02.779Z,1.90
2018-07-29T11:35:06.431Z,1.87
2018-07-29T11:36:11.098Z,1.73
2018-07-29T11:37:14.467Z,2.00
2018-07-29T11:38:17.848Z,1.70
2018-07-29T11:39:21.215Z,2.10
2018-07-29T11:40:25.592Z,2.30
2018-07-29T11:41:29.931Z,1.97
2018-07-29T11:42:33.303Z,2.23
2018-07-29T11:43:36.679Z,2.10
2018-07-29T11:44:40.051Z,2.47
2018-07-29T11:45:44.515Z,2.57
2018-07-29T11:46:47.940Z,2.30
2018-07-29T11:47:51.307Z,2.00
2018-07-29T11:48:54.680Z,1.73
2018-07-29T11:49:59.822Z,1.73
2018-07-29T11:51:03.473Z,1.50
2018-07-29T11:52:06.923Z,1.60
2018-07-29T11:53:10.427Z,1.70
2018-07-29T11:54:13.810Z,1.70
2018-07-29T11:55:18.137Z,1.60
2018-07-29T11:56:22.453Z,1.60
2018-07-29T11:57:25.908Z,1.70
2018-07-29T11:58:29.227Z,1.90
2018-07-29T11:59:32.599Z,1.73
2018-07-29T12:00:37.272Z,1.43
2018-07-29T12:01:40.674Z,1.80
2018-07-29T12:02:44.071Z,2.00
2018-07-29T12:03:47.451Z,1.40
2018-07-29T12:04:50.819Z,1.73
2018-07-29T12:05:55.447Z,1.93
2018-07-29T12:06:58.843Z,1.63
2018-07-29T12:08:02.271Z,1.73
2018-07-29T12:09:07.974Z,1.73
2018-07-29T12:10:12.501Z,2.00
2018-07-29T12:11:17.051Z,1.83
2018-07-29T12:12:20.500Z,1.70
2018-07-29T12:13:23.887Z,1.70
2018-07-29T12:14:27.259Z,3.17
2018-07-29T12:15:31.683Z,1.93
2018-07-29T12:16:35.260Z,1.70
2018-07-29T12:17:38.647Z,1.57
2018-07-29T12:18:42.029Z,2.00
2018-07-29T12:19:45.405Z,1.73
2018-07-29T12:20:49.926Z,2.03
2018-07-29T12:21:53.319Z,1.60
2018-07-29T12:22:56.710Z,1.83
2018-07-29T12:24:00.107Z,1.50
2018-07-29T12:25:04.374Z,1.63
2018-07-29T12:26:08.788Z,1.70
2018-07-29T12:27:12.223Z,1.93
2018-07-29T12:28:15.615Z,2.00
2018-07-29T12:29:18.981Z,2.00
2018-07-29T12:30:23.304Z,1.70
2018-07-29T12:31:28.228Z,1.90
2018-07-29T12:32:31.619Z,2.00
2018-07-29T12:33:35.004Z,2.00
2018-07-29T12:34:38.371Z,1.97
2018-07-29T12:35:42.825Z,1.60
2018-07-29T12:36:46.230Z,2.00
2018-07-29T12:37:49.624Z,1.77
2018-07-29T12:38:53.007Z,1.63
2018-07-29T12:39:56.382Z,1.93
2018-07-29T12:41:00.712Z,1.73
2018-07-29T12:42:04.115Z,1.83
2018-07-29T12:43:07.491Z,1.97
2018-07-29T12:44:10.883Z,1.90
2018-07-29T12:45:15.494Z,1.53
2018-07-29T12:46:20.485Z,2.30
2018-07-29T12:47:23.883Z,2.20
2018-07-29T12:48:27.403Z,2.30
2018-07-29T12:49:30.799Z,2.20
2018-07-29T12:50:35.626Z,2.30
2018-07-29T12:51:39.038Z,2.47
2018-07-29T12:52:42.415Z,1.73
2018-07-29T12:53:45.787Z,1.60
2018-07-29T12:54:49.172Z,2.30
2018-07-29T12:55:53.685Z,2.07
2018-07-29T12:56:56.774Z,1.80
2018-07-29T12:57:59.868Z,1.90
2018-07-29T12:59:03.279Z,2.03
2018-07-29T13:00:07.919Z,2.10
2018-07-29T13:01:12.252Z,1.73
2018-07-29T13:02:15.800Z,1.60
2018-07-29T13:03:19.207Z,2.20
2018-07-29T13:04:22.683Z,2.03
2018-07-29T13:05:27.240Z,2.00
2018-07-29T13:06:30.495Z,2.07
2018-07-29T13:07:33.867Z,1.60
2018-07-29T13:08:37.239Z,1.70
2018-07-29T13:09:40.635Z,1.93
2018-07-29T13:10:45.273Z,1.60
2018-07-29T13:11:48.711Z,1.90
2018-07-29T13:12:52.039Z,2.30
2018-07-29T13:13:55.402Z,1.87
2018-07-29T13:14:58.783Z,1.63
2018-07-29T13:16:03.459Z,1.63
2018-07-29T13:17:06.851Z,2.10
2018-07-29T13:18:10.224Z,1.87
2018-07-29T13:19:13.595Z,2.07
2018-07-29T13:20:18.721Z,2.17
2018-07-29T13:21:23.631Z,2.23
2018-07-29T13:22:27.011Z,1.80
2018-07-29T13:23:30.399Z,1.50
2018-07-29T13:24:33.776Z,2.00
2018-07-29T13:25:38.629Z,1.90
2018-07-29T13:26:42.024Z,2.10
2018-07-29T13:27:45.399Z,1.90
2018-07-29T13:28:48.774Z,1.80
2018-07-29T13:29:52.139Z,2.17
2018-07-29T13:30:56.623Z,1.90
2018-07-29T13:32:00.033Z,1.60
2018-07-29T13:33:03.427Z,1.70
2018-07-29T13:34:07.111Z,1.60
2018-07-29T13:35:11.630Z,1.80
2018-07-29T13:36:16.104Z,1.60
2018-07-29T13:37:19.572Z,1.93
2018-07-29T13:38:23.099Z,1.90
2018-07-29T13:39:26.471Z,2.33
2018-07-29T13:40:31.059Z,2.27
2018-07-29T13:41:34.460Z,1.90
2018-07-29T13:42:38.081Z,1.57
2018-07-29T13:43:41.452Z,2.13
2018-07-29T13:44:44.824Z,2.37
2018-07-29T13:45:48.692Z,2.37
2018-07-29T13:46:51.778Z,2.73
2018-07-29T13:47:54.842Z,2.77
2018-07-29T13:48:58.219Z,3.00
2018-07-29T13:50:01.603Z,1.83
2018-07-29T13:51:05.919Z,4.50
2018-07-29T13:52:09.320Z,1.93
2018-07-29T13:53:12.711Z,4.57
2018-07-29T13:54:16.118Z,2.03
2018-07-29T13:55:20.554Z,1.90
2018-07-29T13:56:24.569Z,1.90
2018-07-29T13:57:27.966Z,2.10
2018-07-29T13:58:31.343Z,2.43
2018-07-29T13:59:34.719Z,2.07
2018-07-29T14:00:39.114Z,1.97
2018-07-29T14:01:42.528Z,2.10
2018-07-29T14:02:46.055Z,2.93
2018-07-29T14:03:49.427Z,3.60
2018-07-29T14:04:52.808Z,2.20
2018-07-29T14:05:56.810Z,2.20
2018-07-29T14:07:00.366Z,2.00
2018-07-29T14:08:03.881Z,1.90